サンフランシスコ の空港の天気 - METARとTAF

サンフランシスコ国際空港 ( KSFO / SFO ) - アメリカ カリフォルニア州サンマテオ郡
飛行場実況気象(Metar)
観測時間10/15 22:56 PDT (10/16 05:56 UTC)
風向・風速西北西 3m/s
視程10km以上
天気現象
なし
気温16.7℃
湿度32%
気圧1019.3hPa
METARKSFO 160556Z 30006KT 10SM CLR 17/00 A3010 RMK AO2 SLP193 T01670000 10222 20161 50005 $
過去の天気等 Google飛行場航空写真 Wunderground天気予報

過去48時間のMETAR

飛行場予報(TAF)
発表時間: 10/15 22:32 PDT (10/16 05:32 UTC)
予報対象時間: 15日23時 PDT ~ 17日5時 PDT
風向・風速西北西 3m/s
視程10km以上
なし
16日3時 PDT から
風向・風速静穏
視程10km以上
なし
16日10時 PDT から
風向・風速東 3m/s
視程10km以上
なし
16日16時 PDT から
風向・風速西北西 6m/s
視程10km以上
なし
16日22時 PDT から
風向・風速西北西 3m/s
視程10km以上
なし
KSFO 160532Z 1606/1712 30005KT P6SM SKC
FM161000 00000KT P6SM SKC
FM161700 10005KT P6SM SKC
FM162300 30011KT P6SM SKC
FM170500 29005KT P6SM SKC